Tanana, AK

11:10 PM AKST on February 24, 2017 (GMT -0900)
Calhoun Memorial | | Change Station
Active Advisory: Winter Weather Advisory

Elev 226 ft 65.17 °N, 152.11 °W | Updated 18 minutes ago

Snow
Snow
33 °F
Feels Like 26 °F
N
9
Wind Variable Wind from WSW

Today
High -- | Low -- °F
--% Chance of Precip.
Yesterday
High -- | Low -- °F
Precip. -- in
Pressure 30.29 in
Visibility 7.0 miles
Clouds Overcast 2000 ft
Windchill 26 °F
Dew Point 30 °F
Humidity 89%
Rainfall 0.00 in
Snow Depth Not available.
8:35 AM 6:09 PM
Waning Crescent, 2% visible
METAR PATA 250752Z AUTO 24008KT 7SM -SN OVC020 01/M01 A3027 RMK AO2 SNB0659 SLP257 T00061011 TSNO PNO $
Pressure 30.29 in
Visibility 7.0 miles
Clouds Overcast 2000 ft
Windchill 26 °F
Dew Point 30 °F
Humidity 89%
Rainfall 0.00 in
Snow Depth Not available.
8:35 AM 6:09 PM
Waning Crescent, 2% visible
METAR PATA 250752Z AUTO 24008KT 7SM -SN OVC020 01/M01 A3027 RMK AO2 SNB0659 SLP257 T00061011 TSNO PNO $

Get Your Daily Forecast Email!

Thanks for signing up!

Be on the lookout for a verification email in your inbox.

You'll start receiving the daily forecast at 8 AM.

×

10-Day Weather Forecast

Almanac

Astronomy

Feb. 24, 2017 Rise Set
Actual Time
Civil Twilight
Nautical Twilight
Astronomical Twilight
Moon
Length of Visible Light
Length of Day
Tomorrow will be .
, % of the Moon is Illuminated

Today's Extremes

State Highs State Lows

Community

WunderPhotos

Upload Photos

1,962,540 photos uploaded!

WunderBlog® & News

Nearby

Air Quality

  Air Quality AQ Index Pollutant
Not available.

Snow Depth

Station Depth Elevation

Earthquake Activity

City Distance Mag. Time & Date
Minimum magnitude displayed is 2.5.

Coastal Water Temperatures

Place Temperature

Stations

Nearby Weather Stations

Station Location Temp. Windchill Dew Point Humidity Wind Precip. Elev Updated Type
                   

Watches & Warnings

Winter Weather Advisory
Issued: 3:45 PM AKST Feb. 24, 2017 – National Weather Service

... Winter Weather Advisory in effect from 9 am Saturday to noon
akst Sunday...

The National Weather Service in Fairbanks has issued a Winter
Weather Advisory for snow which is in effect from 9 am Saturday
to noon akst Sunday. The Winter Storm Watch is no longer in
effect.

* Snow... 4 to 9 inches.

* Timing... snow will develop Saturday morning. Snow will be
heavy at times Saturday evening into early Sunday before
tapering off late Sunday morning.

* Impacts... visibility may be greatly reduced. Travel and
outdoor activities will be difficult.

Precautionary/preparedness actions...

A Winter Weather Advisory means that one or more winter weather
hazards are expected to cause travel difficulties.